sensor_id;sensor_type;location;lat;lon;timestamp;temperature;humidity
52899;DHT22;38763;53.096;6.062;2023-08-21T00:00:47;15.80;99.90
52899;DHT22;38763;53.096;6.062;2023-08-21T00:03:13;15.70;99.90
52899;DHT22;38763;53.096;6.062;2023-08-21T00:05:39;15.70;99.90
52899;DHT22;38763;53.096;6.062;2023-08-21T00:08:05;15.70;99.90
52899;DHT22;38763;53.096;6.062;2023-08-21T00:10:30;15.60;99.90
52899;DHT22;38763;53.096;6.062;2023-08-21T00:12:57;15.60;99.90
52899;DHT22;38763;53.096;6.062;2023-08-21T00:15:23;15.60;99.90
52899;DHT22;38763;53.096;6.062;2023-08-21T00:17:48;15.50;99.90
52899;DHT22;38763;53.096;6.062;2023-08-21T00:20:14;15.50;99.90
52899;DHT22;38763;53.096;6.062;2023-08-21T00:22:40;15.50;99.90
52899;DHT22;38763;53.096;6.062;2023-08-21T00:25:05;15.50;99.90
52899;DHT22;38763;53.096;6.062;2023-08-21T00:27:31;15.50;99.90
52899;DHT22;38763;53.096;6.062;2023-08-21T00:29:59;15.50;99.90
52899;DHT22;38763;53.096;6.062;2023-08-21T00:32:25;15.50;99.90
52899;DHT22;38763;53.096;6.062;2023-08-21T00:34:51;15.40;99.90
52899;DHT22;38763;53.096;6.062;2023-08-21T00:37:16;15.30;99.90
52899;DHT22;38763;53.096;6.062;2023-08-21T00:39:42;15.30;99.90
52899;DHT22;38763;53.096;6.062;2023-08-21T00:42:08;15.40;99.90
52899;DHT22;38763;53.096;6.062;2023-08-21T00:44:33;15.40;99.90
52899;DHT22;38763;53.096;6.062;2023-08-21T00:46:59;15.30;99.90
52899;DHT22;38763;53.096;6.062;2023-08-21T00:49:25;15.30;99.90
52899;DHT22;38763;53.096;6.062;2023-08-21T00:51:51;15.30;99.90
52899;DHT22;38763;53.096;6.062;2023-08-21T00:54:19;15.40;99.90
52899;DHT22;38763;53.096;6.062;2023-08-21T00:56:45;15.30;99.90
52899;DHT22;38763;53.096;6.062;2023-08-21T00:59:11;15.30;99.90
52899;DHT22;38763;53.096;6.062;2023-08-21T01:01:37;15.30;99.90
52899;DHT22;38763;53.096;6.062;2023-08-21T01:04:03;15.30;99.90
52899;DHT22;38763;53.096;6.062;2023-08-21T01:06:29;15.20;99.90
52899;DHT22;38763;53.096;6.062;2023-08-21T01:09:02;15.20;99.90
52899;DHT22;38763;53.096;6.062;2023-08-21T01:11:42;15.20;99.90
52899;DHT22;38763;53.096;6.062;2023-08-21T01:14:23;15.20;99.90
52899;DHT22;38763;53.096;6.062;2023-08-21T01:16:55;15.10;99.90
52899;DHT22;38763;53.096;6.062;2023-08-21T01:19:42;15.00;99.90
52899;DHT22;38763;53.096;6.062;2023-08-21T01:22:08;15.00;99.90
52899;DHT22;38763;53.096;6.062;2023-08-21T01:24:35;15.00;99.90
52899;DHT22;38763;53.096;6.062;2023-08-21T01:27:01;15.00;99.90
52899;DHT22;38763;53.096;6.062;2023-08-21T01:29:27;15.00;99.90
52899;DHT22;38763;53.096;6.062;2023-08-21T01:32:06;15.00;99.90
52899;DHT22;38763;53.096;6.062;2023-08-21T01:34:33;14.90;99.90
52899;DHT22;38763;53.096;6.062;2023-08-21T01:37:00;14.80;99.90
52899;DHT22;38763;53.096;6.062;2023-08-21T01:39:26;14.80;99.90
52899;DHT22;38763;53.096;6.062;2023-08-21T01:41:53;14.90;99.90
52899;DHT22;38763;53.096;6.062;2023-08-21T01:44:18;14.90;99.90
52899;DHT22;38763;53.096;6.062;2023-08-21T01:46:44;14.80;99.90
52899;DHT22;38763;53.096;6.062;2023-08-21T01:49:09;14.80;99.90
52899;DHT22;38763;53.096;6.062;2023-08-21T01:51:35;14.80;99.90
52899;DHT22;38763;53.096;6.062;2023-08-21T01:54:01;14.70;99.90
52899;DHT22;38763;53.096;6.062;2023-08-21T01:56:26;14.70;99.90
52899;DHT22;38763;53.096;6.062;2023-08-21T01:58:52;14.70;99.90
52899;DHT22;38763;53.096;6.062;2023-08-21T02:01:18;14.70;99.90
52899;DHT22;38763;53.096;6.062;2023-08-21T02:03:45;14.70;99.90
52899;DHT22;38763;53.096;6.062;2023-08-21T02:06:11;14.60;99.90
52899;DHT22;38763;53.096;6.062;2023-08-21T02:08:37;14.60;99.90
52899;DHT22;38763;53.096;6.062;2023-08-21T02:11:02;14.60;99.90
52899;DHT22;38763;53.096;6.062;2023-08-21T02:13:28;14.60;99.90
52899;DHT22;38763;53.096;6.062;2023-08-21T02:15:54;14.60;99.90
52899;DHT22;38763;53.096;6.062;2023-08-21T02:18:19;14.50;99.90
52899;DHT22;38763;53.096;6.062;2023-08-21T02:20:47;14.70;99.90
52899;DHT22;38763;53.096;6.062;2023-08-21T02:23:14;14.50;99.90
52899;DHT22;38763;53.096;6.062;2023-08-21T02:25:40;14.50;99.90
52899;DHT22;38763;53.096;6.062;2023-08-21T02:28:05;14.40;99.90
52899;DHT22;38763;53.096;6.062;2023-08-21T02:30:32;14.40;99.90
52899;DHT22;38763;53.096;6.062;2023-08-21T02:32:57;14.40;99.90
52899;DHT22;38763;53.096;6.062;2023-08-21T02:35:23;14.30;99.90
52899;DHT22;38763;53.096;6.062;2023-08-21T02:37:49;14.30;99.90
52899;DHT22;38763;53.096;6.062;2023-08-21T02:40:14;14.30;99.90
52899;DHT22;38763;53.096;6.062;2023-08-21T02:42:40;14.30;99.90
52899;DHT22;38763;53.096;6.062;2023-08-21T02:45:06;14.30;99.90
52899;DHT22;38763;53.096;6.062;2023-08-21T02:47:39;14.30;99.90
52899;DHT22;38763;53.096;6.062;2023-08-21T02:50:06;14.30;99.90
52899;DHT22;38763;53.096;6.062;2023-08-21T02:52:32;14.30;99.90
52899;DHT22;38763;53.096;6.062;2023-08-21T02:54:59;14.30;99.90
52899;DHT22;38763;53.096;6.062;2023-08-21T02:57:25;14.20;99.90
52899;DHT22;38763;53.096;6.062;2023-08-21T02:59:50;14.20;99.90
52899;DHT22;38763;53.096;6.062;2023-08-21T03:02:17;14.20;99.90
52899;DHT22;38763;53.096;6.062;2023-08-21T03:04:43;14.20;99.90
52899;DHT22;38763;53.096;6.062;2023-08-21T03:07:09;14.20;99.90
52899;DHT22;38763;53.096;6.062;2023-08-21T03:09:35;14.20;99.90
52899;DHT22;38763;53.096;6.062;2023-08-21T03:12:01;14.20;99.90
52899;DHT22;38763;53.096;6.062;2023-08-21T03:14:27;14.10;99.90
52899;DHT22;38763;53.096;6.062;2023-08-21T03:16:52;14.00;99.90
52899;DHT22;38763;53.096;6.062;2023-08-21T03:19:18;14.00;99.90
52899;DHT22;38763;53.096;6.062;2023-08-21T03:21:44;14.00;99.90
52899;DHT22;38763;53.096;6.062;2023-08-21T03:24:09;14.10;99.90
52899;DHT22;38763;53.096;6.062;2023-08-21T03:26:35;14.10;99.90
52899;DHT22;38763;53.096;6.062;2023-08-21T03:29:01;14.10;99.90
52899;DHT22;38763;53.096;6.062;2023-08-21T03:31:26;14.00;99.90
52899;DHT22;38763;53.096;6.062;2023-08-21T03:33:52;14.10;99.90
52899;DHT22;38763;53.096;6.062;2023-08-21T03:36:18;14.00;99.90
52899;DHT22;38763;53.096;6.062;2023-08-21T03:38:44;14.10;99.90
52899;DHT22;38763;53.096;6.062;2023-08-21T03:41:10;14.00;99.90
52899;DHT22;38763;53.096;6.062;2023-08-21T03:43:36;14.00;99.90
52899;DHT22;38763;53.096;6.062;2023-08-21T03:46:02;14.00;99.90
52899;DHT22;38763;53.096;6.062;2023-08-21T03:48:27;14.00;99.90
52899;DHT22;38763;53.096;6.062;2023-08-21T03:50:53;14.00;99.90
52899;DHT22;38763;53.096;6.062;2023-08-21T03:53:19;13.90;99.90
52899;DHT22;38763;53.096;6.062;2023-08-21T03:55:44;13.90;99.90
52899;DHT22;38763;53.096;6.062;2023-08-21T03:58:10;13.90;99.90
52899;DHT22;38763;53.096;6.062;2023-08-21T04:00:36;13.90;99.90
52899;DHT22;38763;53.096;6.062;2023-08-21T04:03:02;14.00;99.90
52899;DHT22;38763;53.096;6.062;2023-08-21T04:05:28;14.00;99.90
52899;DHT22;38763;53.096;6.062;2023-08-21T04:07:53;14.00;99.90
52899;DHT22;38763;53.096;6.062;2023-08-21T04:10:19;14.00;99.90
52899;DHT22;38763;53.096;6.062;2023-08-21T04:12:44;13.90;99.90
52899;DHT22;38763;53.096;6.062;2023-08-21T04:15:10;13.90;99.90
52899;DHT22;38763;53.096;6.062;2023-08-21T04:17:36;13.80;99.90
52899;DHT22;38763;53.096;6.062;2023-08-21T04:20:02;13.80;99.90
52899;DHT22;38763;53.096;6.062;2023-08-21T04:22:28;13.80;99.90
52899;DHT22;38763;53.096;6.062;2023-08-21T04:24:54;13.80;99.90
52899;DHT22;38763;53.096;6.062;2023-08-21T04:27:19;13.80;99.90
52899;DHT22;38763;53.096;6.062;2023-08-21T04:29:45;13.80;99.90
52899;DHT22;38763;53.096;6.062;2023-08-21T04:32:11;13.80;99.90
52899;DHT22;38763;53.096;6.062;2023-08-21T04:34:37;13.70;99.90
52899;DHT22;38763;53.096;6.062;2023-08-21T04:37:03;13.70;99.90
52899;DHT22;38763;53.096;6.062;2023-08-21T04:39:30;13.70;99.90
52899;DHT22;38763;53.096;6.062;2023-08-21T04:41:55;13.70;99.90
52899;DHT22;38763;53.096;6.062;2023-08-21T04:44:21;13.80;99.90
52899;DHT22;38763;53.096;6.062;2023-08-21T04:46:48;13.90;99.90
52899;DHT22;38763;53.096;6.062;2023-08-21T04:49:14;13.90;99.90
52899;DHT22;38763;53.096;6.062;2023-08-21T04:51:40;14.00;99.90
52899;DHT22;38763;53.096;6.062;2023-08-21T04:54:05;14.00;99.90
52899;DHT22;38763;53.096;6.062;2023-08-21T04:56:31;14.00;99.90
52899;DHT22;38763;53.096;6.062;2023-08-21T04:58:57;13.90;99.90
52899;DHT22;38763;53.096;6.062;2023-08-21T05:01:22;14.00;99.90
52899;DHT22;38763;53.096;6.062;2023-08-21T05:03:50;14.00;99.90
52899;DHT22;38763;53.096;6.062;2023-08-21T05:06:15;14.00;99.90
52899;DHT22;38763;53.096;6.062;2023-08-21T05:08:41;14.00;99.90
52899;DHT22;38763;53.096;6.062;2023-08-21T05:11:07;14.00;99.90
52899;DHT22;38763;53.096;6.062;2023-08-21T05:13:33;14.10;99.90
52899;DHT22;38763;53.096;6.062;2023-08-21T05:15:58;14.10;99.90
52899;DHT22;38763;53.096;6.062;2023-08-21T05:18:25;14.10;99.90
52899;DHT22;38763;53.096;6.062;2023-08-21T05:20:53;14.20;99.90
52899;DHT22;38763;53.096;6.062;2023-08-21T05:23:19;14.20;99.90
52899;DHT22;38763;53.096;6.062;2023-08-21T05:25:45;14.30;99.90
52899;DHT22;38763;53.096;6.062;2023-08-21T05:28:11;14.30;99.90
52899;DHT22;38763;53.096;6.062;2023-08-21T05:30:37;14.30;99.90
52899;DHT22;38763;53.096;6.062;2023-08-21T05:33:03;14.40;99.90
52899;DHT22;38763;53.096;6.062;2023-08-21T05:35:36;14.40;99.90
52899;DHT22;38763;53.096;6.062;2023-08-21T05:38:03;14.40;99.90
52899;DHT22;38763;53.096;6.062;2023-08-21T05:40:29;14.50;99.90
52899;DHT22;38763;53.096;6.062;2023-08-21T05:42:55;14.60;99.90
52899;DHT22;38763;53.096;6.062;2023-08-21T05:45:20;14.70;99.90
52899;DHT22;38763;53.096;6.062;2023-08-21T05:47:46;14.70;99.90
52899;DHT22;38763;53.096;6.062;2023-08-21T05:50:12;14.80;99.90
52899;DHT22;38763;53.096;6.062;2023-08-21T05:52:37;14.80;99.90
52899;DHT22;38763;53.096;6.062;2023-08-21T05:55:04;15.00;99.90
52899;DHT22;38763;53.096;6.062;2023-08-21T05:57:30;15.00;99.90
52899;DHT22;38763;53.096;6.062;2023-08-21T05:59:56;15.10;99.90
52899;DHT22;38763;53.096;6.062;2023-08-21T06:02:21;15.20;99.90
52899;DHT22;38763;53.096;6.062;2023-08-21T06:04:47;15.20;99.90
52899;DHT22;38763;53.096;6.062;2023-08-21T06:07:12;15.40;99.90
52899;DHT22;38763;53.096;6.062;2023-08-21T06:09:38;15.50;99.90
52899;DHT22;38763;53.096;6.062;2023-08-21T06:12:04;15.60;99.90
52899;DHT22;38763;53.096;6.062;2023-08-21T06:14:30;15.70;99.90
52899;DHT22;38763;53.096;6.062;2023-08-21T06:17:03;15.70;99.90
52899;DHT22;38763;53.096;6.062;2023-08-21T06:19:29;15.80;99.90
52899;DHT22;38763;53.096;6.062;2023-08-21T06:21:55;15.90;99.90
52899;DHT22;38763;53.096;6.062;2023-08-21T06:24:21;16.00;99.90
52899;DHT22;38763;53.096;6.062;2023-08-21T06:26:47;16.20;99.90
52899;DHT22;38763;53.096;6.062;2023-08-21T06:29:13;16.20;99.90
52899;DHT22;38763;53.096;6.062;2023-08-21T06:31:38;16.30;99.90
52899;DHT22;38763;53.096;6.062;2023-08-21T06:34:04;16.40;99.90
52899;DHT22;38763;53.096;6.062;2023-08-21T06:36:29;16.40;99.90
52899;DHT22;38763;53.096;6.062;2023-08-21T06:38:55;16.60;99.90
52899;DHT22;38763;53.096;6.062;2023-08-21T06:41:21;16.60;99.90
52899;DHT22;38763;53.096;6.062;2023-08-21T06:43:47;16.70;99.90
52899;DHT22;38763;53.096;6.062;2023-08-21T06:46:13;16.80;99.90
52899;DHT22;38763;53.096;6.062;2023-08-21T06:48:39;16.80;99.90
52899;DHT22;38763;53.096;6.062;2023-08-21T06:51:11;16.90;99.90
52899;DHT22;38763;53.096;6.062;2023-08-21T06:53:37;17.00;99.90
52899;DHT22;38763;53.096;6.062;2023-08-21T06:56:03;17.10;99.90
52899;DHT22;38763;53.096;6.062;2023-08-21T06:58:29;17.20;99.90
52899;DHT22;38763;53.096;6.062;2023-08-21T07:00:54;17.30;99.90
52899;DHT22;38763;53.096;6.062;2023-08-21T07:03:21;17.40;99.90
52899;DHT22;38763;53.096;6.062;2023-08-21T07:05:54;17.40;99.90
52899;DHT22;38763;53.096;6.062;2023-08-21T07:08:20;17.50;99.90
52899;DHT22;38763;53.096;6.062;2023-08-21T07:10:46;17.60;99.90
52899;DHT22;38763;53.096;6.062;2023-08-21T07:13:12;17.70;99.90
52899;DHT22;38763;53.096;6.062;2023-08-21T07:15:37;17.70;99.90
52899;DHT22;38763;53.096;6.062;2023-08-21T07:18:03;17.80;99.90
52899;DHT22;38763;53.096;6.062;2023-08-21T07:20:29;17.90;99.90
52899;DHT22;38763;53.096;6.062;2023-08-21T07:22:54;18.00;99.90
52899;DHT22;38763;53.096;6.062;2023-08-21T07:25:20;18.10;99.90
52899;DHT22;38763;53.096;6.062;2023-08-21T07:27:46;18.10;99.90
52899;DHT22;38763;53.096;6.062;2023-08-21T07:30:11;18.20;99.90
52899;DHT22;38763;53.096;6.062;2023-08-21T07:32:37;18.30;99.90
52899;DHT22;38763;53.096;6.062;2023-08-21T07:35:03;18.40;99.90
52899;DHT22;38763;53.096;6.062;2023-08-21T07:37:29;18.50;99.90
52899;DHT22;38763;53.096;6.062;2023-08-21T07:39:54;18.60;99.90
52899;DHT22;38763;53.096;6.062;2023-08-21T07:42:23;18.60;99.90
52899;DHT22;38763;53.096;6.062;2023-08-21T07:44:49;18.70;99.90
52899;DHT22;38763;53.096;6.062;2023-08-21T07:47:15;18.80;99.90
52899;DHT22;38763;53.096;6.062;2023-08-21T07:49:40;18.80;99.90
52899;DHT22;38763;53.096;6.062;2023-08-21T07:52:06;18.90;99.90
52899;DHT22;38763;53.096;6.062;2023-08-21T07:54:32;19.00;99.90
52899;DHT22;38763;53.096;6.062;2023-08-21T07:56:57;19.20;99.90
52899;DHT22;38763;53.096;6.062;2023-08-21T07:59:23;19.90;99.90
52899;DHT22;38763;53.096;6.062;2023-08-21T08:01:50;21.20;99.90
52899;DHT22;38763;53.096;6.062;2023-08-21T08:04:15;22.50;99.90
52899;DHT22;38763;53.096;6.062;2023-08-21T08:06:41;23.40;99.90
52899;DHT22;38763;53.096;6.062;2023-08-21T08:09:07;23.90;99.90
52899;DHT22;38763;53.096;6.062;2023-08-21T08:11:32;24.40;99.90
52899;DHT22;38763;53.096;6.062;2023-08-21T08:13:59;25.00;99.90
52899;DHT22;38763;53.096;6.062;2023-08-21T08:16:24;25.60;99.90
52899;DHT22;38763;53.096;6.062;2023-08-21T08:18:50;26.10;99.90
52899;DHT22;38763;53.096;6.062;2023-08-21T08:21:16;26.50;99.90
52899;DHT22;38763;53.096;6.062;2023-08-21T08:23:41;26.70;99.90
52899;DHT22;38763;53.096;6.062;2023-08-21T08:26:07;26.80;99.90
52899;DHT22;38763;53.096;6.062;2023-08-21T08:28:34;26.80;99.90
52899;DHT22;38763;53.096;6.062;2023-08-21T08:31:00;27.20;99.90
52899;DHT22;38763;53.096;6.062;2023-08-21T08:33:26;27.60;99.90
52899;DHT22;38763;53.096;6.062;2023-08-21T08:35:52;28.20;99.90
52899;DHT22;38763;53.096;6.062;2023-08-21T08:38:18;28.40;99.90
52899;DHT22;38763;53.096;6.062;2023-08-21T08:40:47;27.70;99.90
52899;DHT22;38763;53.096;6.062;2023-08-21T08:43:15;28.20;99.90
52899;DHT22;38763;53.096;6.062;2023-08-21T08:45:41;28.40;99.90
52899;DHT22;38763;53.096;6.062;2023-08-21T08:48:07;28.70;99.90
52899;DHT22;38763;53.096;6.062;2023-08-21T08:50:33;28.90;99.90
52899;DHT22;38763;53.096;6.062;2023-08-21T08:53:00;28.70;99.90
52899;DHT22;38763;53.096;6.062;2023-08-21T08:55:27;28.40;99.90
52899;DHT22;38763;53.096;6.062;2023-08-21T08:57:53;28.50;99.90
52899;DHT22;38763;53.096;6.062;2023-08-21T09:00:20;28.30;99.90
52899;DHT22;38763;53.096;6.062;2023-08-21T09:02:46;28.00;99.90
52899;DHT22;38763;53.096;6.062;2023-08-21T09:05:12;28.10;99.90
52899;DHT22;38763;53.096;6.062;2023-08-21T09:07:38;28.30;99.90
52899;DHT22;38763;53.096;6.062;2023-08-21T09:10:05;27.70;99.90
52899;DHT22;38763;53.096;6.062;2023-08-21T09:12:38;28.10;99.90
52899;DHT22;38763;53.096;6.062;2023-08-21T09:15:08;28.10;99.90
52899;DHT22;38763;53.096;6.062;2023-08-21T09:17:34;28.20;99.90
52899;DHT22;38763;53.096;6.062;2023-08-21T09:20:06;28.20;99.90
52899;DHT22;38763;53.096;6.062;2023-08-21T09:22:33;28.40;99.90
52899;DHT22;38763;53.096;6.062;2023-08-21T09:25:08;28.00;99.90
52899;DHT22;38763;53.096;6.062;2023-08-21T09:27:39;28.40;99.90
52899;DHT22;38763;53.096;6.062;2023-08-21T09:30:06;28.30;99.90
52899;DHT22;38763;53.096;6.062;2023-08-21T09:32:54;27.70;99.90
52899;DHT22;38763;53.096;6.062;2023-08-21T09:35:23;28.10;99.90
52899;DHT22;38763;53.096;6.062;2023-08-21T09:37:50;27.80;99.90
52899;DHT22;38763;53.096;6.062;2023-08-21T09:40:19;28.10;99.90
52899;DHT22;38763;53.096;6.062;2023-08-21T09:42:45;28.50;99.90
52899;DHT22;38763;53.096;6.062;2023-08-21T09:45:10;28.50;99.90
52899;DHT22;38763;53.096;6.062;2023-08-21T09:47:37;28.50;99.90
52899;DHT22;38763;53.096;6.062;2023-08-21T09:50:06;28.60;99.90
52899;DHT22;38763;53.096;6.062;2023-08-21T09:52:32;28.40;99.90
52899;DHT22;38763;53.096;6.062;2023-08-21T09:55:00;28.40;99.90
52899;DHT22;38763;53.096;6.062;2023-08-21T09:57:28;28.40;99.90
52899;DHT22;38763;53.096;6.062;2023-08-21T09:59:55;28.70;99.90
52899;DHT22;38763;53.096;6.062;2023-08-21T10:02:23;29.00;99.90
52899;DHT22;38763;53.096;6.062;2023-08-21T10:04:49;29.10;99.90
52899;DHT22;38763;53.096;6.062;2023-08-21T10:07:25;29.10;99.90
52899;DHT22;38763;53.096;6.062;2023-08-21T10:09:53;29.10;99.90
52899;DHT22;38763;53.096;6.062;2023-08-21T10:12:20;29.10;99.90
52899;DHT22;38763;53.096;6.062;2023-08-21T10:14:47;29.30;99.90
52899;DHT22;38763;53.096;6.062;2023-08-21T10:17:13;29.00;99.90
52899;DHT22;38763;53.096;6.062;2023-08-21T10:19:39;28.70;99.90
52899;DHT22;38763;53.096;6.062;2023-08-21T10:22:04;28.60;99.90
52899;DHT22;38763;53.096;6.062;2023-08-21T10:24:35;28.70;99.90
52899;DHT22;38763;53.096;6.062;2023-08-21T10:27:02;28.20;99.90
52899;DHT22;38763;53.096;6.062;2023-08-21T10:29:28;28.30;99.90
52899;DHT22;38763;53.096;6.062;2023-08-21T10:32:04;28.40;99.90
52899;DHT22;38763;53.096;6.062;2023-08-21T10:34:37;28.20;99.90
52899;DHT22;38763;53.096;6.062;2023-08-21T10:37:10;28.20;99.90
52899;DHT22;38763;53.096;6.062;2023-08-21T10:39:39;28.20;99.90
52899;DHT22;38763;53.096;6.062;2023-08-21T10:42:06;28.60;99.90
52899;DHT22;38763;53.096;6.062;2023-08-21T10:47:30;28.30;99.70
52899;DHT22;38763;53.096;6.062;2023-08-21T10:50:08;28.30;99.90
52899;DHT22;38763;53.096;6.062;2023-08-21T10:52:41;28.50;99.90
52899;DHT22;38763;53.096;6.062;2023-08-21T10:55:09;28.60;99.90
52899;DHT22;38763;53.096;6.062;2023-08-21T10:57:35;28.40;99.90
52899;DHT22;38763;53.096;6.062;2023-08-21T11:00:06;28.20;99.90
52899;DHT22;38763;53.096;6.062;2023-08-21T11:02:39;28.50;99.90
52899;DHT22;38763;53.096;6.062;2023-08-21T11:05:06;28.30;99.90
52899;DHT22;38763;53.096;6.062;2023-08-21T11:07:46;28.20;99.90
52899;DHT22;38763;53.096;6.062;2023-08-21T11:10:13;28.10;99.90
52899;DHT22;38763;53.096;6.062;2023-08-21T11:12:50;27.60;99.90
52899;DHT22;38763;53.096;6.062;2023-08-21T11:15:17;27.20;99.90
52899;DHT22;38763;53.096;6.062;2023-08-21T11:17:54;26.80;99.90
52899;DHT22;38763;53.096;6.062;2023-08-21T11:20:20;26.00;99.90
52899;DHT22;38763;53.096;6.062;2023-08-21T11:22:45;25.90;99.90
52899;DHT22;38763;53.096;6.062;2023-08-21T11:25:11;25.70;99.90
52899;DHT22;38763;53.096;6.062;2023-08-21T11:27:37;25.70;99.90
52899;DHT22;38763;53.096;6.062;2023-08-21T11:30:04;25.50;99.90
52899;DHT22;38763;53.096;6.062;2023-08-21T11:32:30;25.40;99.90
52899;DHT22;38763;53.096;6.062;2023-08-21T11:34:56;25.60;99.90
52899;DHT22;38763;53.096;6.062;2023-08-21T11:37:24;25.50;99.90
52899;DHT22;38763;53.096;6.062;2023-08-21T11:42:19;25.70;99.90
52899;DHT22;38763;53.096;6.062;2023-08-21T11:44:52;25.90;99.90
52899;DHT22;38763;53.096;6.062;2023-08-21T11:47:22;26.10;99.90
52899;DHT22;38763;53.096;6.062;2023-08-21T11:49:49;26.10;99.90
52899;DHT22;38763;53.096;6.062;2023-08-21T11:52:23;26.10;99.90
52899;DHT22;38763;53.096;6.062;2023-08-21T11:54:53;26.00;99.90
52899;DHT22;38763;53.096;6.062;2023-08-21T11:57:20;25.80;99.90
52899;DHT22;38763;53.096;6.062;2023-08-21T11:59:55;25.50;99.90
52899;DHT22;38763;53.096;6.062;2023-08-21T12:02:24;25.50;99.90
52899;DHT22;38763;53.096;6.062;2023-08-21T12:05:07;25.50;99.90
52899;DHT22;38763;53.096;6.062;2023-08-21T12:07:38;25.40;99.90
52899;DHT22;38763;53.096;6.062;2023-08-21T12:10:04;25.40;99.90
52899;DHT22;38763;53.096;6.062;2023-08-21T12:12:30;25.40;99.90
52899;DHT22;38763;53.096;6.062;2023-08-21T12:14:56;25.30;99.90
52899;DHT22;38763;53.096;6.062;2023-08-21T12:17:22;25.40;99.90
52899;DHT22;38763;53.096;6.062;2023-08-21T12:19:48;25.50;99.90
52899;DHT22;38763;53.096;6.062;2023-08-21T12:22:13;25.50;99.90
52899;DHT22;38763;53.096;6.062;2023-08-21T12:24:39;25.50;99.90
52899;DHT22;38763;53.096;6.062;2023-08-21T12:27:06;25.60;99.90
52899;DHT22;38763;53.096;6.062;2023-08-21T12:29:32;25.40;99.90
52899;DHT22;38763;53.096;6.062;2023-08-21T12:31:58;25.50;99.90
52899;DHT22;38763;53.096;6.062;2023-08-21T12:34:23;25.40;99.90
52899;DHT22;38763;53.096;6.062;2023-08-21T12:36:52;25.40;99.90
52899;DHT22;38763;53.096;6.062;2023-08-21T12:39:18;25.40;99.90
52899;DHT22;38763;53.096;6.062;2023-08-21T12:41:43;25.50;99.90
52899;DHT22;38763;53.096;6.062;2023-08-21T12:44:09;25.30;99.90
52899;DHT22;38763;53.096;6.062;2023-08-21T12:46:36;25.40;99.90
52899;DHT22;38763;53.096;6.062;2023-08-21T12:49:02;25.30;99.90
52899;DHT22;38763;53.096;6.062;2023-08-21T12:51:29;25.30;99.90
52899;DHT22;38763;53.096;6.062;2023-08-21T12:53:55;25.40;99.90
52899;DHT22;38763;53.096;6.062;2023-08-21T12:56:21;25.70;99.90
52899;DHT22;38763;53.096;6.062;2023-08-21T12:58:48;25.60;99.90
52899;DHT22;38763;53.096;6.062;2023-08-21T13:01:13;25.60;99.90
52899;DHT22;38763;53.096;6.062;2023-08-21T13:03:46;25.50;99.90
52899;DHT22;38763;53.096;6.062;2023-08-21T13:06:12;25.50;99.90
52899;DHT22;38763;53.096;6.062;2023-08-21T13:08:38;25.50;99.90
52899;DHT22;38763;53.096;6.062;2023-08-21T13:11:04;25.50;99.90
52899;DHT22;38763;53.096;6.062;2023-08-21T13:13:31;25.50;99.90
52899;DHT22;38763;53.096;6.062;2023-08-21T13:15:57;25.40;99.90
52899;DHT22;38763;53.096;6.062;2023-08-21T13:18:22;25.30;99.90
52899;DHT22;38763;53.096;6.062;2023-08-21T13:20:48;25.10;99.90
52899;DHT22;38763;53.096;6.062;2023-08-21T13:23:14;25.10;99.90
52899;DHT22;38763;53.096;6.062;2023-08-21T13:25:39;25.20;99.90
52899;DHT22;38763;53.096;6.062;2023-08-21T13:28:05;25.20;99.90
52899;DHT22;38763;53.096;6.062;2023-08-21T13:30:31;25.10;99.90
52899;DHT22;38763;53.096;6.062;2023-08-21T13:32:56;25.00;99.90
52899;DHT22;38763;53.096;6.062;2023-08-21T13:35:22;25.00;99.90
52899;DHT22;38763;53.096;6.062;2023-08-21T13:37:49;25.10;99.90
52899;DHT22;38763;53.096;6.062;2023-08-21T13:40:15;25.00;99.90
52899;DHT22;38763;53.096;6.062;2023-08-21T13:42:43;24.90;99.90
52899;DHT22;38763;53.096;6.062;2023-08-21T13:45:10;24.80;99.90
52899;DHT22;38763;53.096;6.062;2023-08-21T13:47:44;24.70;99.90
52899;DHT22;38763;53.096;6.062;2023-08-21T13:50:10;24.70;99.90
52899;DHT22;38763;53.096;6.062;2023-08-21T13:52:36;24.90;99.90
52899;DHT22;38763;53.096;6.062;2023-08-21T13:55:02;25.10;99.90
52899;DHT22;38763;53.096;6.062;2023-08-21T13:57:28;25.30;99.90
52899;DHT22;38763;53.096;6.062;2023-08-21T13:59:54;25.30;99.90
52899;DHT22;38763;53.096;6.062;2023-08-21T14:02:20;25.40;99.90
52899;DHT22;38763;53.096;6.062;2023-08-21T14:04:46;25.30;99.90
52899;DHT22;38763;53.096;6.062;2023-08-21T14:07:12;25.20;99.90
52899;DHT22;38763;53.096;6.062;2023-08-21T14:09:38;25.20;99.90
52899;DHT22;38763;53.096;6.062;2023-08-21T14:12:04;25.00;99.90
52899;DHT22;38763;53.096;6.062;2023-08-21T14:14:29;25.00;99.90
52899;DHT22;38763;53.096;6.062;2023-08-21T14:16:55;24.90;99.90
52899;DHT22;38763;53.096;6.062;2023-08-21T14:19:21;25.10;99.90
52899;DHT22;38763;53.096;6.062;2023-08-21T14:21:46;25.10;99.90
52899;DHT22;38763;53.096;6.062;2023-08-21T14:24:12;24.90;99.90
52899;DHT22;38763;53.096;6.062;2023-08-21T14:26:37;24.90;99.90
52899;DHT22;38763;53.096;6.062;2023-08-21T14:29:05;24.70;99.90
52899;DHT22;38763;53.096;6.062;2023-08-21T14:31:31;24.60;99.90
52899;DHT22;38763;53.096;6.062;2023-08-21T14:33:56;24.50;99.90
52899;DHT22;38763;53.096;6.062;2023-08-21T14:36:23;24.50;99.90
52899;DHT22;38763;53.096;6.062;2023-08-21T14:38:49;24.50;99.90
52899;DHT22;38763;53.096;6.062;2023-08-21T14:41:16;24.50;99.90
52899;DHT22;38763;53.096;6.062;2023-08-21T14:43:42;24.60;99.90
52899;DHT22;38763;53.096;6.062;2023-08-21T14:46:08;24.50;99.90
52899;DHT22;38763;53.096;6.062;2023-08-21T14:48:34;24.60;99.90
52899;DHT22;38763;53.096;6.062;2023-08-21T14:50:59;24.50;99.90
52899;DHT22;38763;53.096;6.062;2023-08-21T14:53:25;24.50;99.90
52899;DHT22;38763;53.096;6.062;2023-08-21T14:55:51;24.40;99.90
52899;DHT22;38763;53.096;6.062;2023-08-21T14:58:16;24.50;99.90
52899;DHT22;38763;53.096;6.062;2023-08-21T15:00:42;24.70;99.90
52899;DHT22;38763;53.096;6.062;2023-08-21T15:03:07;24.70;99.90
52899;DHT22;38763;53.096;6.062;2023-08-21T15:05:33;24.80;99.90
52899;DHT22;38763;53.096;6.062;2023-08-21T15:07:59;24.80;99.90
52899;DHT22;38763;53.096;6.062;2023-08-21T15:10:27;24.90;99.90
52899;DHT22;38763;53.096;6.062;2023-08-21T15:12:53;24.90;99.90
52899;DHT22;38763;53.096;6.062;2023-08-21T15:15:18;24.80;99.90
52899;DHT22;38763;53.096;6.062;2023-08-21T15:17:46;24.80;99.90
52899;DHT22;38763;53.096;6.062;2023-08-21T15:20:12;24.70;99.90
52899;DHT22;38763;53.096;6.062;2023-08-21T15:22:40;24.70;99.90
52899;DHT22;38763;53.096;6.062;2023-08-21T15:25:06;24.70;99.90
52899;DHT22;38763;53.096;6.062;2023-08-21T15:27:32;24.60;99.90
52899;DHT22;38763;53.096;6.062;2023-08-21T15:29:57;24.60;99.90
52899;DHT22;38763;53.096;6.062;2023-08-21T15:32:23;24.60;99.90